createdAt,value
2023-05-04T00:00:11.431Z,97747.00
2023-05-04T00:02:38.374Z,97757.00
2023-05-04T00:05:06.478Z,97758.00
2023-05-04T00:07:33.373Z,97751.00
2023-05-04T00:10:01.213Z,97760.00
2023-05-04T00:12:28.561Z,97754.00
2023-05-04T00:14:55.484Z,97737.00
2023-05-04T00:17:22.816Z,97746.00
2023-05-04T00:19:49.763Z,97742.00
2023-05-04T00:22:16.890Z,97738.00
2023-05-04T00:24:44.692Z,97743.00
2023-05-04T00:27:11.718Z,97746.00
2023-05-04T00:29:38.656Z,97729.00
2023-05-04T00:32:05.929Z,97727.00
2023-05-04T00:34:36.194Z,97732.00
2023-05-04T00:37:03.050Z,97721.00
2023-05-04T00:39:29.858Z,97730.00
2023-05-04T00:41:56.645Z,97727.00
2023-05-04T00:44:24.020Z,97720.00
2023-05-04T00:46:53.782Z,97728.00
2023-05-04T00:49:21.729Z,97725.00
2023-05-04T00:51:50.332Z,97725.00
2023-05-04T00:54:18.260Z,97720.00
2023-05-04T00:56:45.981Z,97721.00
2023-05-04T00:59:13.937Z,97720.00
2023-05-04T01:01:41.869Z,97725.00
2023-05-04T01:04:09.050Z,97731.00
2023-05-04T01:06:47.267Z,97728.00
2023-05-04T01:09:41.684Z,97728.00
2023-05-04T01:12:17.913Z,97722.00
2023-05-04T01:14:47.061Z,97717.00
2023-05-04T01:17:14.100Z,97725.00
2023-05-04T01:19:41.003Z,97717.00
2023-05-04T01:22:07.801Z,97720.00
2023-05-04T01:24:34.900Z,97723.00
2023-05-04T01:27:11.854Z,97725.00
2023-05-04T01:29:55.253Z,97731.00
2023-05-04T01:32:23.088Z,97723.00
2023-05-04T01:34:50.158Z,97716.00
2023-05-04T01:37:17.006Z,97719.00
2023-05-04T01:39:43.815Z,97730.00
2023-05-04T01:42:10.660Z,97730.00
2023-05-04T01:44:37.839Z,97736.00
2023-05-04T01:47:04.665Z,97723.00
2023-05-04T01:49:31.660Z,97734.00
2023-05-04T01:51:58.555Z,97726.00
2023-05-04T01:54:25.458Z,97727.00
2023-05-04T01:56:52.249Z,97728.00
2023-05-04T01:59:19.092Z,97734.00
2023-05-04T02:01:45.986Z,97728.00
2023-05-04T02:04:12.935Z,97719.00
2023-05-04T02:06:40.044Z,97712.00
2023-05-04T02:09:06.978Z,97711.00
2023-05-04T02:11:33.780Z,97720.00
2023-05-04T02:14:00.719Z,97717.00
2023-05-04T02:16:27.562Z,97724.00
2023-05-04T02:18:54.409Z,97722.00
2023-05-04T02:21:21.523Z,97719.00
2023-05-04T02:23:48.335Z,97716.00
2023-05-04T02:26:15.236Z,97706.00
2023-05-04T02:28:42.123Z,97707.00
2023-05-04T02:31:09.012Z,97718.00
2023-05-04T02:33:36.014Z,97712.00
2023-05-04T02:36:02.942Z,97701.00
2023-05-04T02:38:41.458Z,97716.00
2023-05-04T02:41:08.252Z,97717.00
2023-05-04T02:43:35.177Z,97713.00
2023-05-04T02:46:02.099Z,97719.00
2023-05-04T02:48:28.966Z,97713.00
2023-05-04T02:50:56.440Z,97709.00
2023-05-04T02:53:23.295Z,97718.00
2023-05-04T02:55:50.110Z,97698.00
2023-05-04T02:58:16.921Z,97711.00
2023-05-04T03:00:43.798Z,97701.00
2023-05-04T03:03:12.392Z,97702.00
2023-05-04T03:05:39.265Z,97710.00
2023-05-04T03:08:06.120Z,97712.00
2023-05-04T03:10:32.904Z,97715.00
2023-05-04T03:13:03.982Z,97707.00
2023-05-04T03:15:30.854Z,97710.00
2023-05-04T03:17:57.778Z,97710.00
2023-05-04T03:20:25.011Z,97710.00
2023-05-04T03:22:51.802Z,97715.00
2023-05-04T03:25:18.797Z,97708.00
2023-05-04T03:27:45.677Z,97717.00
2023-05-04T03:30:13.267Z,97713.00
2023-05-04T03:32:40.829Z,97716.00
2023-05-04T03:35:08.219Z,97707.00
2023-05-04T03:37:35.179Z,97710.00
2023-05-04T03:40:02.164Z,97708.00
2023-05-04T03:42:29.076Z,97717.00
2023-05-04T03:44:55.898Z,97713.00
2023-05-04T03:47:22.748Z,97713.00
2023-05-04T03:49:49.561Z,97715.00
2023-05-04T03:52:16.413Z,97709.00
2023-05-04T03:54:43.246Z,97719.00
2023-05-04T03:57:10.251Z,97712.00
2023-05-04T03:59:37.048Z,97710.00
2023-05-04T04:02:03.956Z,97712.00
2023-05-04T04:04:30.858Z,97711.00
2023-05-04T04:06:57.716Z,97704.00
2023-05-04T04:09:24.613Z,97710.00
2023-05-04T04:11:51.467Z,97718.00
2023-05-04T04:14:18.290Z,97717.00
2023-05-04T04:16:45.111Z,97722.00
2023-05-04T04:19:12.232Z,97714.00
2023-05-04T04:21:39.554Z,97720.00
2023-05-04T04:24:06.538Z,97713.00
2023-05-04T04:26:33.998Z,97724.00
2023-05-04T04:29:00.887Z,97724.00
2023-05-04T04:31:27.815Z,97734.00
2023-05-04T04:33:54.783Z,97744.00
2023-05-04T04:36:21.810Z,97734.00
2023-05-04T04:38:49.670Z,97724.00
2023-05-04T04:41:16.595Z,97727.00
2023-05-04T04:43:43.453Z,97724.00
2023-05-04T04:46:10.652Z,97723.00
2023-05-04T04:48:37.761Z,97724.00
2023-05-04T04:51:10.360Z,97720.00
2023-05-04T04:53:37.165Z,97722.00
2023-05-04T04:56:05.099Z,97725.00
2023-05-04T04:58:32.545Z,97728.00
2023-05-04T05:00:59.654Z,97724.00
2023-05-04T05:03:26.526Z,97730.00
2023-05-04T05:05:55.210Z,97729.00
2023-05-04T05:08:22.229Z,97726.00
2023-05-04T05:10:49.148Z,97738.00
2023-05-04T05:13:16.141Z,97726.00
2023-05-04T05:15:42.986Z,97732.00
2023-05-04T05:18:09.851Z,97720.00
2023-05-04T05:20:36.646Z,97730.00
2023-05-04T05:23:03.519Z,97728.00
2023-05-04T05:25:30.740Z,97727.00
2023-05-04T05:27:57.659Z,97725.00
2023-05-04T05:31:54.857Z,97739.00
2023-05-04T05:34:21.711Z,97735.00
2023-05-04T05:36:49.125Z,97748.00
2023-05-04T05:39:16.308Z,97732.00
2023-05-04T05:41:43.332Z,97738.00
2023-05-04T05:44:11.732Z,97734.00
2023-05-04T05:46:40.580Z,97738.00
2023-05-04T05:49:07.550Z,97743.00
2023-05-04T05:51:34.550Z,97728.00
2023-05-04T05:54:01.653Z,97724.00
2023-05-04T05:56:28.525Z,97734.00
2023-05-04T05:58:56.661Z,97729.00
2023-05-04T06:01:24.207Z,97733.00
2023-05-04T06:03:51.369Z,97738.00
2023-05-04T06:06:18.316Z,97733.00
2023-05-04T06:08:45.117Z,97737.00
2023-05-04T06:11:11.985Z,97744.00
2023-05-04T06:13:39.427Z,97748.00
2023-05-04T06:16:06.334Z,97741.00
2023-05-04T06:18:33.155Z,97740.00
2023-05-04T06:21:01.301Z,97738.00
2023-05-04T06:23:29.573Z,97740.00
2023-05-04T06:25:56.508Z,97735.00
2023-05-04T06:28:23.496Z,97738.00
2023-05-04T06:30:50.783Z,97740.00
2023-05-04T06:33:17.813Z,97731.00
2023-05-04T06:35:45.416Z,97728.00
2023-05-04T06:38:12.388Z,97746.00
2023-05-04T06:40:39.299Z,97726.00
2023-05-04T06:43:06.673Z,97731.00
2023-05-04T06:45:37.472Z,97731.00
2023-05-04T06:48:05.052Z,97725.00
2023-05-04T06:50:33.406Z,97719.00
2023-05-04T06:53:09.060Z,97718.00
2023-05-04T06:55:38.856Z,97718.00
2023-05-04T06:58:05.856Z,97707.00
2023-05-04T07:00:32.969Z,97707.00
2023-05-04T07:02:59.881Z,97712.00
2023-05-04T07:05:27.234Z,97727.00
2023-05-04T07:07:54.135Z,97724.00
2023-05-04T07:10:20.987Z,97722.00
2023-05-04T07:12:49.421Z,97717.00
2023-05-04T07:15:16.286Z,97720.00
2023-05-04T07:17:43.356Z,97725.00
2023-05-04T07:20:11.280Z,97717.00
2023-05-04T07:22:38.191Z,97714.00
2023-05-04T07:25:05.596Z,97718.00
2023-05-04T07:27:32.457Z,97713.00
2023-05-04T07:29:59.276Z,97709.00
2023-05-04T07:32:26.215Z,97716.00
2023-05-04T07:34:53.071Z,97710.00
2023-05-04T07:37:19.979Z,97701.00
2023-05-04T07:39:46.876Z,97706.00
2023-05-04T07:42:13.705Z,97700.00
2023-05-04T07:44:41.447Z,97694.00
2023-05-04T07:47:08.521Z,97701.00
2023-05-04T07:49:35.414Z,97685.00
2023-05-04T07:52:04.299Z,97698.00
2023-05-04T07:54:31.331Z,97690.00
2023-05-04T07:56:58.140Z,97695.00
2023-05-04T07:59:24.971Z,97690.00
2023-05-04T08:01:51.806Z,97693.00
2023-05-04T08:04:18.623Z,97690.00
2023-05-04T08:06:46.478Z,97686.00
2023-05-04T08:09:13.403Z,97691.00
2023-05-04T08:11:41.534Z,97684.00
2023-05-04T08:14:09.124Z,97689.00
2023-05-04T08:16:36.238Z,97683.00
2023-05-04T08:19:03.411Z,97683.00
2023-05-04T08:21:35.561Z,97675.00
2023-05-04T08:24:02.574Z,97687.00
2023-05-04T08:26:30.976Z,97685.00
2023-05-04T08:29:07.462Z,97679.00
2023-05-04T08:31:35.011Z,97680.00
2023-05-04T08:34:02.256Z,97681.00
2023-05-04T08:36:29.611Z,97680.00
2023-05-04T08:38:56.719Z,97677.00
2023-05-04T08:41:23.646Z,97678.00
2023-05-04T08:43:51.468Z,97672.00
2023-05-04T08:46:18.660Z,97674.00
2023-05-04T08:48:46.304Z,97665.00
2023-05-04T08:51:14.594Z,97664.00
2023-05-04T08:53:46.066Z,97658.00
2023-05-04T08:56:14.699Z,97645.00
2023-05-04T08:58:50.430Z,97655.00
2023-05-04T09:01:21.979Z,97654.00
2023-05-04T09:03:49.509Z,97648.00
2023-05-04T09:06:17.751Z,97651.00
2023-05-04T09:08:49.504Z,97654.00
2023-05-04T09:11:16.419Z,97660.00
2023-05-04T09:13:43.460Z,97644.00
2023-05-04T09:16:10.815Z,97651.00
2023-05-04T09:18:39.982Z,97647.00
2023-05-04T09:21:07.035Z,97650.00
2023-05-04T09:23:34.390Z,97646.00
2023-05-04T09:26:01.377Z,97653.00
2023-05-04T09:28:39.365Z,97650.00
2023-05-04T09:31:07.650Z,97654.00
2023-05-04T09:33:34.859Z,97655.00
2023-05-04T09:36:18.102Z,97655.00
2023-05-04T09:38:46.160Z,97652.00
2023-05-04T09:41:13.070Z,97650.00
2023-05-04T09:43:42.320Z,97653.00
2023-05-04T09:46:19.452Z,97649.00
2023-05-04T09:48:55.089Z,97653.00
2023-05-04T09:51:24.885Z,97649.00
2023-05-04T09:53:52.701Z,97653.00
2023-05-04T09:56:38.817Z,97644.00
2023-05-04T09:59:05.967Z,97638.00
2023-05-04T10:01:33.171Z,97628.00
2023-05-04T10:04:00.833Z,97634.00
2023-05-04T10:06:32.163Z,97636.00
2023-05-04T10:09:02.252Z,97623.00
2023-05-04T10:11:30.450Z,97625.00
2023-05-04T10:13:57.655Z,97622.00
2023-05-04T10:16:49.016Z,97618.00
2023-05-04T10:19:52.139Z,97615.00
2023-05-04T10:22:58.933Z,97608.00
2023-05-04T10:26:17.949Z,97611.00
2023-05-04T10:29:12.563Z,97606.00
2023-05-04T10:31:43.447Z,97607.00
2023-05-04T10:34:11.972Z,97602.00
2023-05-04T10:36:40.617Z,97596.00
2023-05-04T10:39:35.298Z,97594.00
2023-05-04T10:42:07.626Z,97600.00
2023-05-04T10:44:48.538Z,97593.00
2023-05-04T10:47:15.700Z,97584.00
2023-05-04T10:49:42.848Z,97589.00
2023-05-04T10:52:18.234Z,97576.00
2023-05-04T10:54:45.446Z,97582.00
2023-05-04T10:57:17.022Z,97574.00
2023-05-04T10:59:58.389Z,97578.00
2023-05-04T11:02:30.351Z,97575.00
2023-05-04T11:05:04.586Z,97568.00
2023-05-04T11:07:39.566Z,97575.00
2023-05-04T11:10:09.695Z,97571.00
2023-05-04T11:12:38.442Z,97566.00
2023-05-04T11:15:10.236Z,97565.00
2023-05-04T11:17:56.957Z,97562.00
2023-05-04T11:20:26.297Z,97556.00
2023-05-04T11:22:54.407Z,97555.00
2023-05-04T11:25:28.648Z,97549.00
2023-05-04T11:27:56.388Z,97561.00
2023-05-04T11:30:34.860Z,97555.00
2023-05-04T11:33:11.667Z,97546.00
2023-05-04T11:35:39.540Z,97542.00
2023-05-04T11:38:07.599Z,97535.00
2023-05-04T11:40:36.483Z,97539.00
2023-05-04T11:43:04.269Z,97537.00
2023-05-04T11:45:33.704Z,97534.00
2023-05-04T11:48:01.514Z,97530.00
2023-05-04T11:50:29.666Z,97531.00
2023-05-04T11:53:13.873Z,97537.00
2023-05-04T11:55:41.898Z,97536.00
2023-05-04T11:58:10.587Z,97528.00
2023-05-04T12:00:43.701Z,97528.00
2023-05-04T12:03:27.993Z,97521.00
2023-05-04T12:06:03.043Z,97521.00
2023-05-04T12:08:35.839Z,97519.00
2023-05-04T12:11:26.374Z,97519.00
2023-05-04T12:14:11.646Z,97511.00
2023-05-04T12:16:39.100Z,97523.00
2023-05-04T12:19:06.815Z,97518.00
2023-05-04T12:21:35.098Z,97511.00
2023-05-04T12:24:03.331Z,97510.00
2023-05-04T12:26:30.572Z,97511.00
2023-05-04T12:28:57.613Z,97502.00
2023-05-04T12:31:25.530Z,97503.00
2023-05-04T12:33:52.804Z,97501.00
2023-05-04T12:36:21.303Z,97498.00
2023-05-04T12:38:48.131Z,97500.00
2023-05-04T12:41:15.013Z,97495.00
2023-05-04T12:43:42.844Z,97492.00
2023-05-04T12:46:09.810Z,97489.00
2023-05-04T12:48:36.769Z,97489.00
2023-05-04T12:51:06.711Z,97482.00
2023-05-04T12:53:33.617Z,97484.00
2023-05-04T12:56:02.832Z,97485.00
2023-05-04T12:58:30.980Z,97482.00
2023-05-04T13:00:58.009Z,97483.00
2023-05-04T13:03:24.987Z,97472.00
2023-05-04T13:05:52.024Z,97467.00
2023-05-04T13:08:19.734Z,97466.00
2023-05-04T13:10:47.195Z,97477.00
2023-05-04T13:13:17.154Z,97465.00
2023-05-04T13:15:44.822Z,97470.00
2023-05-04T13:18:12.814Z,97472.00
2023-05-04T13:20:40.548Z,97467.00
2023-05-04T13:23:07.509Z,97467.00
2023-05-04T13:25:34.381Z,97461.00
2023-05-04T13:28:01.208Z,97456.00
2023-05-04T13:30:28.729Z,97450.00
2023-05-04T13:32:55.923Z,97443.00
2023-05-04T13:35:23.819Z,97446.00
2023-05-04T13:37:51.417Z,97451.00
2023-05-04T13:40:18.533Z,97447.00
2023-05-04T13:42:45.428Z,97442.00
2023-05-04T13:45:13.130Z,97437.00
2023-05-04T13:47:40.598Z,97445.00
2023-05-04T13:50:08.503Z,97436.00
2023-05-04T13:52:36.073Z,97432.00
2023-05-04T13:55:03.865Z,97433.00
2023-05-04T13:57:31.043Z,97435.00
2023-05-04T14:00:07.052Z,97420.00
2023-05-04T14:02:34.836Z,97422.00
2023-05-04T14:05:03.813Z,97418.00
2023-05-04T14:07:30.927Z,97420.00
2023-05-04T14:09:59.133Z,97404.00
2023-05-04T14:12:26.188Z,97414.00
2023-05-04T14:14:53.059Z,97402.00
2023-05-04T14:17:19.874Z,97397.00
2023-05-04T14:19:46.684Z,97402.00
2023-05-04T14:22:13.488Z,97390.00
2023-05-04T14:24:40.311Z,97394.00
2023-05-04T14:27:07.189Z,97409.00
2023-05-04T14:29:34.380Z,97403.00
2023-05-04T14:32:01.386Z,97398.00
2023-05-04T14:34:28.329Z,97394.00
2023-05-04T14:36:55.437Z,97396.00
2023-05-04T14:39:22.546Z,97398.00
2023-05-04T14:41:49.464Z,97390.00
2023-05-04T14:44:16.478Z,97382.00
2023-05-04T14:46:43.360Z,97377.00
2023-05-04T14:49:12.481Z,97380.00
2023-05-04T14:51:43.096Z,97381.00
2023-05-04T14:54:09.946Z,97374.00
2023-05-04T14:56:36.715Z,97377.00
2023-05-04T14:59:03.806Z,97377.00
2023-05-04T15:01:30.731Z,97374.00
2023-05-04T15:03:57.647Z,97370.00
2023-05-04T15:06:24.527Z,97366.00
2023-05-04T15:08:51.327Z,97362.00
2023-05-04T15:11:19.409Z,97358.00
2023-05-04T15:13:46.460Z,97366.00
2023-05-04T15:16:20.409Z,97357.00
2023-05-04T15:18:47.370Z,97351.00
2023-05-04T15:21:14.156Z,97354.00
2023-05-04T15:23:40.963Z,97348.00
2023-05-04T15:26:07.808Z,97351.00
2023-05-04T15:28:34.632Z,97353.00
2023-05-04T15:31:02.593Z,97350.00
2023-05-04T15:33:29.435Z,97350.00
2023-05-04T15:35:56.290Z,97354.00
2023-05-04T15:38:23.191Z,97357.00
2023-05-04T15:40:50.394Z,97354.00
2023-05-04T15:43:17.309Z,97354.00
2023-05-04T15:45:44.173Z,97352.00
2023-05-04T15:48:11.022Z,97351.00
2023-05-04T15:50:38.008Z,97354.00
2023-05-04T15:53:04.889Z,97348.00
2023-05-04T15:55:32.526Z,97351.00
2023-05-04T15:57:59.401Z,97347.00
2023-05-04T16:00:26.979Z,97340.00
2023-05-04T16:02:54.422Z,97342.00
2023-05-04T16:05:21.507Z,97340.00
2023-05-04T16:07:48.593Z,97332.00
2023-05-04T16:10:15.528Z,97331.00
2023-05-04T16:12:42.438Z,97331.00
2023-05-04T16:15:09.763Z,97329.00
2023-05-04T16:17:36.660Z,97324.00
2023-05-04T16:20:05.207Z,97320.00
2023-05-04T16:22:32.566Z,97322.00
2023-05-04T16:25:00.592Z,97324.00
2023-05-04T16:27:28.516Z,97322.00
2023-05-04T16:29:55.935Z,97319.00
2023-05-04T16:32:23.117Z,97315.00
2023-05-04T16:34:50.041Z,97316.00
2023-05-04T16:37:18.505Z,97308.00
2023-05-04T16:39:45.403Z,97303.00
2023-05-04T16:42:12.584Z,97301.00
2023-05-04T16:44:39.396Z,97301.00
2023-05-04T16:47:06.948Z,97295.00
2023-05-04T16:49:34.000Z,97289.00
2023-05-04T16:52:04.920Z,97298.00
2023-05-04T16:54:31.733Z,97295.00
2023-05-04T16:56:58.566Z,97295.00
2023-05-04T16:59:25.392Z,97286.00
2023-05-04T17:01:52.339Z,97291.00
2023-05-04T17:04:19.261Z,97298.00
2023-05-04T17:06:46.090Z,97296.00
2023-05-04T17:09:12.915Z,97297.00
2023-05-04T17:11:39.753Z,97294.00
2023-05-04T17:14:06.642Z,97297.00
2023-05-04T17:16:33.578Z,97298.00
2023-05-04T17:19:00.554Z,97297.00
2023-05-04T17:21:27.599Z,97305.00
2023-05-04T17:23:54.512Z,97303.00
2023-05-04T17:26:21.493Z,97316.00
2023-05-04T17:28:48.339Z,97304.00
2023-05-04T17:31:15.450Z,97304.00
2023-05-04T17:33:42.288Z,97304.00
2023-05-04T17:36:11.730Z,97306.00
2023-05-04T17:38:39.799Z,97295.00
2023-05-04T17:41:07.441Z,97304.00
2023-05-04T17:43:34.325Z,97298.00
2023-05-04T17:46:02.125Z,97296.00
2023-05-04T17:48:31.293Z,97293.00
2023-05-04T17:50:59.001Z,97295.00
2023-05-04T17:53:29.661Z,97290.00
2023-05-04T17:55:56.906Z,97287.00
2023-05-04T17:58:24.302Z,97291.00
2023-05-04T18:00:52.979Z,97288.00
2023-05-04T18:03:20.320Z,97302.00
2023-05-04T18:05:47.251Z,97296.00
2023-05-04T18:08:14.359Z,97298.00
2023-05-04T18:10:41.257Z,97304.00
2023-05-04T18:13:08.254Z,97298.00
2023-05-04T18:15:35.195Z,97298.00
2023-05-04T18:18:02.210Z,97307.00
2023-05-04T18:20:30.498Z,97302.00
2023-05-04T18:22:57.314Z,97308.00
2023-05-04T18:25:24.317Z,97316.00
2023-05-04T18:27:51.178Z,97313.00
2023-05-04T18:30:18.134Z,97310.00
2023-05-04T18:32:45.055Z,97326.00
2023-05-04T18:35:12.023Z,97322.00
2023-05-04T18:37:38.887Z,97316.00
2023-05-04T18:40:07.919Z,97322.00
2023-05-04T18:42:34.983Z,97323.00
2023-05-04T18:45:01.965Z,97329.00
2023-05-04T18:47:28.826Z,97333.00
2023-05-04T18:49:56.397Z,97331.00
2023-05-04T18:52:23.408Z,97337.00
2023-05-04T18:54:50.972Z,97339.00
2023-05-04T18:57:17.834Z,97338.00
2023-05-04T18:59:44.659Z,97338.00
2023-05-04T19:02:12.620Z,97343.00
2023-05-04T19:04:39.703Z,97338.00
2023-05-04T19:07:06.580Z,97338.00
2023-05-04T19:09:33.434Z,97356.00
2023-05-04T19:12:00.499Z,97350.00
2023-05-04T19:14:30.493Z,97355.00
2023-05-04T19:16:57.977Z,97354.00
2023-05-04T19:19:25.987Z,97352.00
2023-05-04T19:21:52.925Z,97353.00
2023-05-04T19:24:19.922Z,97355.00
2023-05-04T19:26:47.198Z,97356.00
2023-05-04T19:29:14.125Z,97350.00
2023-05-04T19:31:40.971Z,97354.00
2023-05-04T19:34:07.896Z,97354.00
2023-05-04T19:36:34.749Z,97354.00
2023-05-04T19:39:01.795Z,97348.00
2023-05-04T19:41:28.706Z,97345.00
2023-05-04T19:43:55.635Z,97350.00
2023-05-04T19:46:22.597Z,97343.00
2023-05-04T19:48:49.477Z,97348.00
2023-05-04T19:51:16.395Z,97357.00
2023-05-04T19:53:45.998Z,97355.00
2023-05-04T19:56:12.865Z,97351.00
2023-05-04T19:58:39.694Z,97362.00
2023-05-04T20:01:06.514Z,97349.00
2023-05-04T20:03:33.452Z,97363.00
2023-05-04T20:06:00.335Z,97356.00
2023-05-04T20:08:27.340Z,97362.00
2023-05-04T20:10:55.658Z,97352.00
2023-05-04T20:13:22.662Z,97354.00
2023-05-04T20:15:49.547Z,97356.00
2023-05-04T20:18:16.756Z,97352.00
2023-05-04T20:20:43.608Z,97357.00
2023-05-04T20:23:10.432Z,97355.00
2023-05-04T20:25:37.255Z,97344.00
2023-05-04T20:28:04.247Z,97346.00
2023-05-04T20:30:31.127Z,97351.00
2023-05-04T20:32:58.009Z,97342.00
2023-05-04T20:35:24.825Z,97354.00
2023-05-04T20:37:51.646Z,97348.00
2023-05-04T20:40:18.566Z,97355.00
2023-05-04T20:42:45.594Z,97349.00
2023-05-04T20:45:12.392Z,97341.00
2023-05-04T20:47:39.547Z,97341.00
2023-05-04T20:50:09.340Z,97341.00
2023-05-04T20:52:38.369Z,97350.00
2023-05-04T20:55:07.744Z,97336.00
2023-05-04T20:57:34.725Z,97346.00
2023-05-04T21:00:01.718Z,97340.00
2023-05-04T21:04:55.505Z,97343.00
2023-05-04T21:07:22.375Z,97347.00
2023-05-04T21:09:49.208Z,97341.00
2023-05-04T21:12:16.381Z,97337.00
2023-05-04T21:14:43.520Z,97341.00
2023-05-04T21:17:10.724Z,97340.00
2023-05-04T21:19:37.829Z,97334.00
2023-05-04T21:22:04.691Z,97327.00
2023-05-04T21:24:33.081Z,97335.00
2023-05-04T21:27:00.506Z,97332.00
2023-05-04T21:29:27.424Z,97336.00
2023-05-04T21:31:54.393Z,97334.00
2023-05-04T21:34:21.238Z,97325.00
2023-05-04T21:36:48.045Z,97330.00
2023-05-04T21:39:14.918Z,97320.00
2023-05-04T21:41:41.826Z,97325.00
2023-05-04T21:44:08.919Z,97328.00
2023-05-04T21:46:35.728Z,97326.00
2023-05-04T21:49:03.165Z,97322.00
2023-05-04T21:55:36.496Z,97314.00
2023-05-04T21:58:03.317Z,97321.00
2023-05-04T22:00:30.124Z,97318.00
2023-05-04T22:11:09.574Z,97326.00
2023-05-04T22:13:36.511Z,97320.00
2023-05-04T22:16:03.490Z,97323.00
2023-05-04T22:18:30.325Z,97324.00
2023-05-04T22:20:57.226Z,97319.00
2023-05-04T22:23:24.125Z,97317.00
2023-05-04T22:25:51.044Z,97315.00
2023-05-04T22:28:17.930Z,97316.00
2023-05-04T22:30:44.789Z,97315.00
2023-05-04T22:33:11.598Z,97315.00
2023-05-04T22:35:38.450Z,97315.00
2023-05-04T22:38:05.400Z,97309.00
2023-05-04T22:40:32.271Z,97312.00
2023-05-04T22:42:59.080Z,97306.00
2023-05-04T22:45:25.997Z,97306.00
2023-05-04T22:47:52.984Z,97310.00
2023-05-04T22:50:20.219Z,97306.00
2023-05-04T22:52:47.030Z,97321.00
2023-05-04T22:55:14.432Z,97310.00
2023-05-04T22:57:41.276Z,97316.00
2023-05-04T23:00:09.817Z,97308.00
2023-05-04T23:02:37.007Z,97317.00
2023-05-04T23:05:04.329Z,97316.00
2023-05-04T23:07:31.265Z,97318.00
2023-05-04T23:09:58.247Z,97320.00
2023-05-04T23:12:26.798Z,97317.00
2023-05-04T23:14:54.620Z,97318.00
2023-05-04T23:17:22.092Z,97320.00
2023-05-04T23:19:49.100Z,97320.00
2023-05-04T23:22:16.264Z,97315.00
2023-05-04T23:24:43.110Z,97315.00
2023-05-04T23:27:11.130Z,97322.00
2023-05-04T23:29:37.979Z,97316.00
2023-05-04T23:32:05.217Z,97311.00
2023-05-04T23:34:32.166Z,97317.00
2023-05-04T23:36:59.022Z,97312.00
2023-05-04T23:39:25.815Z,97315.00
2023-05-04T23:41:53.098Z,97321.00
2023-05-04T23:44:21.247Z,97316.00
2023-05-04T23:46:48.087Z,97323.00
2023-05-04T23:49:14.960Z,97322.00
2023-05-04T23:51:41.797Z,97311.00
2023-05-04T23:54:09.066Z,97311.00
2023-05-04T23:56:35.864Z,97306.00
2023-05-04T23:59:03.622Z,97311.00
